Time;durP1;ratioP1;P1;durP2;ratioP2;P2;SDS_P1;SDS_P2;PMS_P1;PMS_P2;Temp;Humidity;BMP_temperature;BMP_pressure;BME280_temperature;BME280_humidity;BME280_pressure;Samples;Min_cycle;Max_cycle;Signal;HPM_P1;HPM_P2
2022/10/11 00:02:13;;;;;;;5.50;3.35;;;;;;;13.64;56.81;98876.22;5053541;28;20032;-71
2022/10/11 00:04:38;;;;;;;4.40;3.10;;;;;;;13.65;56.53;98872.28;5053651;28;20017;-70
2022/10/11 00:07:04;;;;;;;6.40;3.40;;;;;;;13.65;56.66;98871.50;5053501;28;20024;-70
2022/10/11 00:09:29;;;;;;;7.55;3.53;;;;;;;13.64;56.63;98873.44;5054037;28;20037;-70
2022/10/11 00:11:55;;;;;;;6.53;3.42;;;;;;;13.66;56.81;98870.38;5054132;28;20017;-70
2022/10/11 00:14:21;;;;;;;4.97;3.70;;;;;;;13.63;56.81;98874.56;5054182;28;20029;-70
2022/10/11 00:16:46;;;;;;;7.65;3.53;;;;;;;13.63;56.87;98879.25;5053484;28;20021;-70
2022/10/11 00:19:12;;;;;;;7.22;3.25;;;;;;;13.61;56.96;98879.56;5053744;28;20104;-70
2022/10/11 00:21:38;;;;;;;4.75;3.38;;;;;;;13.61;56.95;98889.75;5054153;28;20463;-71
2022/10/11 00:24:04;;;;;;;6.03;3.60;;;;;;;13.59;56.65;98883.75;5061999;28;20008;-70
2022/10/11 00:26:29;;;;;;;5.97;3.72;;;;;;;13.57;56.58;98883.22;5074062;28;20086;-70
2022/10/11 00:28:55;;;;;;;9.93;6.72;;;;;;;13.55;56.67;98878.84;5074177;28;20413;-70
2022/10/11 00:31:21;;;;;;;19.42;12.23;;;;;;;13.51;56.60;98879.75;5073993;28;20024;-70
2022/10/11 00:33:47;;;;;;;10.95;6.00;;;;;;;13.47;56.67;98881.50;5074017;28;20023;-70
2022/10/11 00:36:15;;;;;;;6.75;4.18;;;;;;;13.47;56.60;98887.00;5073752;28;20147;-70
2022/10/11 00:38:40;;;;;;;7.85;3.60;;;;;;;13.44;56.77;98882.94;5059461;28;20028;-70
2022/10/11 00:41:06;;;;;;;7.22;3.80;;;;;;;13.43;56.96;98881.31;5061293;28;20367;-70
2022/10/11 00:43:32;;;;;;;6.55;3.60;;;;;;;13.42;56.43;98873.31;5064393;28;20482;-70
2022/10/11 00:46:00;;;;;;;6.50;3.67;;;;;;;13.39;56.86;98878.28;5062695;28;20043;-68
2022/10/11 00:48:32;;;;;;;5.95;4.03;;;;;;;13.38;57.02;98881.38;5054471;28;20102;-69
2022/10/11 00:50:59;;;;;;;6.38;3.40;;;;;;;13.37;56.37;98877.78;5053672;28;20116;-69
2022/10/11 00:53:28;;;;;;;20.67;9.95;;;;;;;13.33;56.28;98881.47;5035859;28;20025;-69
2022/10/11 00:56:01;;;;;;;6.05;4.47;;;;;;;13.32;56.70;98877.06;5062175;28;20502;-69
2022/10/11 00:58:27;;;;;;;5.43;3.80;;;;;;;13.31;56.76;98879.00;5061931;28;20032;-69
2022/10/11 01:00:53;;;;;;;4.90;3.40;;;;;;;13.30;56.76;98885.63;5071838;28;20071;-69
2022/10/11 01:03:24;;;;;;;5.30;3.35;;;;;;;13.31;56.64;98879.00;5068117;28;20063;-69
2022/10/11 01:05:49;;;;;;;4.90;3.50;;;;;;;13.32;56.69;98874.31;5053363;28;20021;-69
2022/10/11 01:08:15;;;;;;;4.63;3.17;;;;;;;13.29;56.58;98877.69;5052995;28;20087;-69
2022/10/11 01:10:40;;;;;;;6.45;3.63;;;;;;;13.26;56.76;98881.84;5053211;28;20371;-69
2022/10/11 01:13:46;;;;;;;7.32;3.50;;;;;;;13.22;57.04;98876.13;5053346;28;20021;-69
2022/10/11 01:16:11;;;;;;;4.35;3.30;;;;;;;13.21;56.89;98881.97;5053960;28;20052;-69
2022/10/11 01:19:08;;;;;;;6.88;3.75;;;;;;;13.18;56.96;98875.09;5068287;28;20530;-69
2022/10/11 01:21:49;;;;;;;5.30;3.28;;;;;;;13.17;57.05;98883.69;5072893;28;20108;-69
2022/10/11 01:24:39;;;;;;;6.18;3.53;;;;;;;13.15;57.08;98883.97;5071209;28;20375;-69
2022/10/11 01:27:34;;;;;;;4.75;3.50;;;;;;;13.15;57.09;98883.16;5059266;28;20071;-69
2022/10/11 01:30:22;;;;;;;6.78;3.10;;;;;;;13.15;56.78;98877.66;5063678;28;20020;-69
2022/10/11 01:33:41;;;;;;;5.47;3.38;;;;;;;13.11;56.65;98885.69;5071701;28;20028;-68
2022/10/11 01:36:13;;;;;;;;;;;;;;;13.14;56.81;98881.53;4999987;28;20044;-68
2022/10/11 01:38:43;;;;;;;5.50;3.20;;;;;;;13.12;56.21;98881.81;5043388;28;19923;-68
2022/10/11 01:41:14;;;;;;;5.13;3.10;;;;;;;13.09;56.53;98877.75;5063776;28;20028;-69
2022/10/11 01:43:41;;;;;;;5.82;3.85;;;;;;;13.07;56.63;98879.16;5052436;28;20021;-69
2022/10/11 01:46:08;;;;;;;5.82;3.60;;;;;;;13.07;56.57;98879.97;5059794;28;20107;-69
2022/10/11 01:48:55;;;;;;;7.20;3.70;;;;;;;13.07;56.69;98879.97;5040067;28;20406;-69
2022/10/11 01:51:26;;;;;;;4.13;3.20;;;;;;;13.07;56.48;98879.16;5054665;28;20437;-69
2022/10/11 01:54:03;;;;;;;4.75;2.92;;;;;;;13.06;56.61;98883.84;5071116;28;20497;-69
2022/10/11 01:56:37;;;;;;;5.45;3.38;;;;;;;13.06;56.65;98880.25;5064032;28;20040;-69
2022/10/11 01:59:18;;;;;;;5.82;3.13;;;;;;;13.05;57.05;98882.22;5052257;28;20029;-69
2022/10/11 02:01:49;;;;;;;4.22;2.85;;;;;;;13.06;56.56;98883.84;5052006;28;20489;-69
2022/10/11 02:04:32;;;;;;;6.32;3.22;;;;;;;13.06;56.81;98889.34;5064627;28;20088;-69
2022/10/11 02:07:13;;;;;;;8.10;3.63;;;;;;;13.05;56.84;98881.38;5060487;28;20029;-69
2022/10/11 02:09:51;;;;;;;9.02;3.90;;;;;;;13.05;57.09;98886.88;5052147;28;20029;-69
2022/10/11 02:12:35;;;;;;;5.05;3.30;;;;;;;13.05;56.82;98882.22;5051924;28;20083;-69
2022/10/11 02:15:02;;;;;;;9.73;3.88;;;;;;;13.04;56.56;98886.09;5051950;28;20394;-69
2022/10/11 02:17:33;;;;;;;8.15;3.30;;;;;;;13.03;56.74;98889.16;5058728;28;20055;-69
2022/10/11 02:20:05;;;;;;;5.43;3.05;;;;;;;13.03;56.98;98891.91;5052029;28;20028;-69
2022/10/11 02:22:36;;;;;;;3.78;2.97;;;;;;;13.01;57.09;98886.69;5051528;28;20107;-69
2022/10/11 02:25:07;;;;;;;6.13;3.30;;;;;;;13.01;56.73;98885.88;5051223;28;20368;-70
2022/10/11 02:27:37;;;;;;;5.68;3.30;;;;;;;12.98;56.73;98887.28;5052896;28;20386;-69
2022/10/11 02:30:06;;;;;;;5.25;3.13;;;;;;;12.94;56.32;98881.59;5051772;28;20032;-69
2022/10/11 02:32:33;;;;;;;6.20;3.20;;;;;;;12.93;56.88;98898.38;5034066;28;20032;-69
2022/10/11 02:35:01;;;;;;;6.38;3.15;;;;;;;12.91;56.50;98884.94;5053281;28;20033;-69
2022/10/11 02:37:46;;;;;;;5.10;3.15;;;;;;;12.88;56.92;98891.03;5056552;28;20052;-69
2022/10/11 02:40:22;;;;;;;5.78;3.40;;;;;;;12.86;57.10;98892.44;5052352;28;20018;-69
2022/10/11 02:42:57;;;;;;;5.78;3.05;;;;;;;12.83;57.16;98884.81;5071024;28;20024;-69
2022/10/11 02:45:43;;;;;;;5.93;3.70;;;;;;;12.80;57.02;98888.97;5071854;28;20029;-69
2022/10/11 02:48:11;;;;;;;6.20;3.80;;;;;;;12.79;57.32;98890.09;5071288;28;20024;-70
2022/10/11 02:50:38;;;;;;;5.88;3.72;;;;;;;12.76;56.94;98891.53;5066892;28;20546;-69
2022/10/11 02:53:04;;;;;;;8.23;4.20;;;;;;;12.74;57.41;98896.50;5051660;28;20039;-69
2022/10/11 02:55:30;;;;;;;6.57;3.97;;;;;;;12.74;57.60;98901.19;5051329;28;20473;-69
2022/10/11 02:57:55;;;;;;;6.40;3.55;;;;;;;12.73;57.13;98908.63;5051441;28;20044;-69
2022/10/11 03:00:21;;;;;;;5.30;3.80;;;;;;;12.73;57.21;98902.28;5051996;28;20025;-69
2022/10/11 03:02:46;;;;;;;6.22;3.40;;;;;;;12.70;57.75;98900.97;5044895;28;20021;-69
2022/10/11 03:05:12;;;;;;;6.03;3.08;;;;;;;12.70;57.57;98908.41;5051632;28;20067;-69
2022/10/11 03:07:37;;;;;;;4.07;3.33;;;;;;;12.68;57.68;98911.47;5062670;28;20046;-69
2022/10/11 03:10:03;;;;;;;7.43;3.78;;;;;;;12.68;57.82;98908.72;5070800;28;20110;-69
2022/10/11 03:12:29;;;;;;;7.20;3.60;;;;;;;12.68;58.22;98919.72;5067595;28;20028;-69
2022/10/11 03:14:54;;;;;;;7.80;3.50;;;;;;;12.68;57.83;98914.22;5055297;28;20021;-69
2022/10/11 03:17:19;;;;;;;4.88;3.30;;;;;;;12.66;57.71;98917.25;5067374;28;20094;-70
2022/10/11 03:19:45;;;;;;;5.90;3.20;;;;;;;12.66;58.23;98917.25;5070784;28;20481;-69
2022/10/11 03:22:10;;;;;;;6.93;3.58;;;;;;;12.70;57.50;98924.91;5052821;28;20025;-69
2022/10/11 03:24:36;;;;;;;5.63;2.90;;;;;;;12.71;57.96;98923.78;5051117;28;20044;-69
2022/10/11 03:27:01;;;;;;;6.90;3.20;;;;;;;12.73;58.13;98922.41;5050951;28;20045;-70
2022/10/11 03:29:26;;;;;;;5.20;3.17;;;;;;;12.75;57.85;98931.16;5052142;28;20386;-70
2022/10/11 03:31:53;;;;;;;5.85;3.38;;;;;;;12.73;58.25;98925.16;5056007;28;20090;-69
2022/10/11 03:34:19;;;;;;;7.15;3.30;;;;;;;12.74;58.26;98932.28;5057597;28;20036;-70
2022/10/11 03:36:45;;;;;;;4.72;2.90;;;;;;;12.76;58.14;98934.72;5057000;28;20050;-69
2022/10/11 03:39:11;;;;;;;6.30;3.40;;;;;;;12.77;58.14;98934.44;5068513;28;20103;-69
2022/10/11 03:41:36;;;;;;;5.57;3.22;;;;;;;12.79;58.57;98939.63;5057849;28;20024;-69
2022/10/11 03:44:02;;;;;;;8.02;3.33;;;;;;;12.79;58.56;98939.63;5050835;28;20020;-70
2022/10/11 03:46:27;;;;;;;7.25;3.50;;;;;;;12.79;58.58;98936.88;5051113;28;20122;-69
2022/10/11 03:48:53;;;;;;;6.38;3.63;;;;;;;12.80;58.32;98938.50;5036362;28;20090;-70
2022/10/11 03:51:18;;;;;;;5.68;3.63;;;;;;;12.85;58.33;98945.88;5060942;28;20518;-70
2022/10/11 03:53:44;;;;;;;6.53;3.28;;;;;;;12.84;58.14;98949.75;5054159;28;20509;-69
2022/10/11 03:56:09;;;;;;;5.85;3.47;;;;;;;12.83;58.57;98943.44;5055038;28;20075;-69
2022/10/11 03:58:34;;;;;;;6.10;3.45;;;;;;;12.84;58.45;98947.81;5054291;28;20036;-69
2022/10/11 04:01:00;;;;;;;6.82;3.50;;;;;;;12.86;58.51;98939.25;5064388;28;20068;-70
2022/10/11 04:03:25;;;;;;;8.02;3.90;;;;;;;12.87;58.61;98954.63;5056035;28;20025;-69
2022/10/11 04:05:51;;;;;;;12.50;4.28;;;;;;;12.88;59.00;98946.09;5072042;28;20482;-69
2022/10/11 04:08:16;;;;;;;7.40;3.72;;;;;;;12.88;58.66;98953.53;5072503;28;20040;-70
2022/10/11 04:10:42;;;;;;;5.07;3.67;;;;;;;12.90;58.93;98954.03;5071090;28;20107;-70
2022/10/11 04:13:10;;;;;;;7.18;4.22;;;;;;;12.87;58.64;98949.13;5063001;28;20032;-70
2022/10/11 04:15:37;;;;;;;7.38;4.55;;;;;;;12.87;58.95;98951.88;5054065;28;20029;-69
2022/10/11 04:18:02;;;;;;;7.68;3.97;;;;;;;12.87;58.81;98963.72;5068580;28;20078;-69
2022/10/11 04:20:28;;;;;;;7.68;4.47;;;;;;;12.86;58.84;98953.84;5071484;28;20667;-69
2022/10/11 04:22:53;;;;;;;7.53;3.97;;;;;;;12.86;59.30;98958.50;5055145;28;20540;-69
2022/10/11 04:25:18;;;;;;;8.55;4.07;;;;;;;12.83;59.82;98951.69;5053725;28;20124;-69
2022/10/11 04:27:44;;;;;;;6.75;4.32;;;;;;;12.82;60.05;98961.06;5057826;28;20079;-69
2022/10/11 04:30:10;;;;;;;7.32;4.78;;;;;;;12.79;60.24;98950.63;5054802;28;20021;-69
2022/10/11 04:32:35;;;;;;;7.45;4.25;;;;;;;12.74;60.39;98947.97;5064863;28;20024;-69
2022/10/11 04:35:01;;;;;;;8.10;4.20;;;;;;;12.69;61.06;98948.88;5054927;28;20083;-69
2022/10/11 04:37:26;;;;;;;7.93;4.15;;;;;;;12.61;61.17;98955.88;5059108;28;20107;-69
2022/10/11 04:39:52;;;;;;;5.57;3.75;;;;;;;12.55;61.69;98954.31;5069812;28;20108;-69
2022/10/11 04:42:17;;;;;;;7.05;4.05;;;;;;;12.49;61.67;98952.75;5059218;28;20399;-69
2022/10/11 04:44:42;;;;;;;6.82;4.10;;;;;;;12.43;61.81;98956.66;5055799;28;20537;-70
2022/10/11 04:47:08;;;;;;;9.27;6.13;;;;;;;12.39;62.31;98950.97;5061603;28;20040;-69
2022/10/11 04:49:33;;;;;;;11.85;6.20;;;;;;;12.34;62.55;98967.53;5072901;28;20036;-69
2022/10/11 04:51:58;;;;;;;29.00;14.88;;;;;;;12.28;62.23;98972.25;5062465;28;20478;-69
2022/10/11 04:54:24;;;;;;;39.90;18.80;;;;;;;12.24;62.33;98965.69;5057191;28;20037;-69
2022/10/11 04:56:49;;;;;;;13.77;7.20;;;;;;;12.19;62.96;98972.09;5056973;28;20112;-69
2022/10/11 04:59:14;;;;;;;11.32;5.82;;;;;;;12.17;62.84;98971.56;5073096;28;20062;-69
2022/10/11 05:01:40;;;;;;;7.75;4.40;;;;;;;12.17;63.24;98976.28;5065143;28;20033;-69
2022/10/11 05:04:05;;;;;;;7.88;4.28;;;;;;;12.13;63.34;98972.47;5056300;28;20044;-69
2022/10/11 05:06:31;;;;;;;7.65;4.45;;;;;;;12.10;63.03;98984.06;5069391;28;20062;-69
2022/10/11 05:08:56;;;;;;;7.28;4.05;;;;;;;12.06;63.79;98981.06;5054020;28;20035;-67
2022/10/11 05:11:21;;;;;;;8.80;4.53;;;;;;;12.03;64.04;98990.72;5057988;28;20039;-66
2022/10/11 05:13:47;;;;;;;6.70;4.68;;;;;;;11.98;64.33;98995.44;5060891;28;20736;-66
2022/10/11 05:16:13;;;;;;;8.30;4.40;;;;;;;11.90;63.82;98997.72;5054768;28;20040;-69
2022/10/11 05:18:38;;;;;;;7.65;4.25;;;;;;;11.86;64.41;98998.56;5053209;28;20037;-67
2022/10/11 05:21:14;;;;;;;8.43;4.85;;;;;;;11.82;64.39;99011.28;5037960;28;20138;-67
2022/10/11 05:23:40;;;;;;;10.75;5.13;;;;;;;11.78;64.68;99008.28;5070942;28;20044;-68
2022/10/11 05:26:05;;;;;;;9.70;6.28;;;;;;;11.76;65.00;99008.59;5071350;28;20032;-67
2022/10/11 05:28:31;;;;;;;8.80;5.40;;;;;;;11.75;65.14;99017.09;5060904;28;20029;-67
2022/10/11 05:30:57;;;;;;;6.40;5.18;;;;;;;11.74;65.31;99019.03;5054619;28;20112;-67
2022/10/11 05:33:22;;;;;;;8.65;5.30;;;;;;;11.75;65.38;99017.09;5060546;28;20025;-67
2022/10/11 05:35:48;;;;;;;8.43;4.97;;;;;;;11.77;65.57;99023.13;5059909;28;20136;-67
2022/10/11 05:38:13;;;;;;;7.07;4.80;;;;;;;11.79;65.10;99022.84;5059573;28;20024;-69
2022/10/11 05:40:39;;;;;;;8.90;4.75;;;;;;;11.79;65.77;99020.91;5076581;28;20021;-68
2022/10/11 05:43:05;;;;;;;7.72;4.88;;;;;;;11.82;65.55;99028.56;5078181;28;20103;-67
2022/10/11 05:45:33;;;;;;;6.43;4.53;;;;;;;11.85;66.29;99028.00;5071238;28;20478;-69
2022/10/11 05:47:59;;;;;;;6.50;4.57;;;;;;;11.86;66.45;99035.13;5068413;28;20079;-67
2022/10/11 05:50:24;;;;;;;6.68;4.50;;;;;;;11.89;65.53;99044.72;5064753;28;20428;-67
2022/10/11 05:52:50;;;;;;;7.13;4.82;;;;;;;11.91;66.24;99043.31;5064444;28;20033;-69
2022/10/11 05:55:15;;;;;;;8.32;4.78;;;;;;;11.96;65.79;99045.19;5061270;28;20036;-69
2022/10/11 05:57:41;;;;;;;11.60;6.20;;;;;;;12.00;65.79;99051.78;5070854;28;20036;-69
2022/10/11 06:00:07;;;;;;;7.93;5.20;;;;;;;12.04;66.05;99054.75;5072054;28;20480;-69
2022/10/11 06:02:33;;;;;;;7.40;4.75;;;;;;;12.09;66.41;99062.94;5069893;28;20111;-67
2022/10/11 06:04:58;;;;;;;8.63;5.65;;;;;;;12.13;66.42;99055.75;5066008;28;20028;-68
2022/10/11 06:07:24;;;;;;;9.35;4.75;;;;;;;12.17;66.20;99073.31;5080399;28;20036;-68
2022/10/11 06:09:50;;;;;;;10.27;5.05;;;;;;;12.19;66.03;99073.84;5069162;28;20197;-68
2022/10/11 06:12:16;;;;;;;8.77;5.05;;;;;;;12.22;66.34;99075.22;5067146;28;20427;-67
2022/10/11 06:14:42;;;;;;;7.00;5.07;;;;;;;12.26;66.63;99083.69;5058314;28;20063;-67
2022/10/11 06:17:08;;;;;;;10.30;4.97;;;;;;;12.26;66.18;99086.44;5066140;28;20584;-68
2022/10/11 06:19:33;;;;;;;10.60;5.18;;;;;;;12.28;66.20;99084.22;5065181;28;20029;-68
2022/10/11 06:21:59;;;;;;;8.95;5.15;;;;;;;12.32;66.34;99093.53;5068903;28;20071;-68
2022/10/11 06:24:24;;;;;;;11.30;4.95;;;;;;;12.35;66.44;99092.94;5062466;28;20458;-67
2022/10/11 06:26:50;;;;;;;8.98;5.53;;;;;;;12.42;66.51;99096.16;5069446;28;20036;-69
2022/10/11 06:29:16;;;;;;;6.95;4.95;;;;;;;12.45;66.68;99095.53;5060745;28;20024;-69
2022/10/11 06:31:41;;;;;;;10.05;5.40;;;;;;;12.44;66.81;99099.41;5059771;28;20021;-70
2022/10/11 06:34:06;;;;;;;7.10;5.07;;;;;;;12.49;66.70;99104.06;5071767;28;20154;-68
2022/10/11 06:36:32;;;;;;;8.45;4.95;;;;;;;12.56;66.77;99098.19;5077009;28;20028;-69
2022/10/11 06:39:00;;;;;;;9.73;5.10;;;;;;;12.64;66.71;99100.28;5058539;28;20032;-68
2022/10/11 06:41:27;;;;;;;8.20;4.88;;;;;;;12.71;66.79;99106.25;5069060;28;20032;-68
2022/10/11 06:43:53;;;;;;;9.07;5.45;;;;;;;12.78;66.71;99101.22;5069983;28;20028;-67
2022/10/11 06:46:20;;;;;;;7.60;4.60;;;;;;;12.85;67.05;99102.78;5064248;28;20056;-68
2022/10/11 06:48:47;;;;;;;9.02;4.70;;;;;;;12.91;66.63;99112.59;5064800;28;20032;-69
2022/10/11 06:51:15;;;;;;;9.38;4.70;;;;;;;13.00;67.29;99115.53;5070395;28;20025;-69
2022/10/11 06:53:40;;;;;;;6.65;4.30;;;;;;;13.05;67.25;99130.03;5066187;28;20112;-69
2022/10/11 06:56:09;;;;;;;10.60;5.07;;;;;;;13.10;67.04;99127.22;5064089;28;20490;-68
2022/10/11 06:58:35;;;;;;;7.47;4.75;;;;;;;13.15;66.88;99137.34;5067368;28;20070;-69
2022/10/11 07:01:01;;;;;;;8.00;4.85;;;;;;;13.16;67.15;99132.66;5065732;28;20130;-70
2022/10/11 07:03:28;;;;;;;9.65;4.90;;;;;;;13.15;66.75;99142.03;5062665;28;20035;-69
2022/10/11 07:06:01;;;;;;;10.60;5.28;;;;;;;13.15;67.00;99139.28;5055916;28;20020;-69
2022/10/11 07:08:27;;;;;;;8.15;5.05;;;;;;;13.16;66.74;99141.72;5066398;28;20071;-69
2022/10/11 07:10:52;;;;;;;7.20;4.45;;;;;;;13.20;66.89;99151.03;5086435;28;20064;-68
2022/10/11 07:13:18;;;;;;;9.60;5.03;;;;;;;13.25;67.09;99155.66;5071509;28;20035;-69
2022/10/11 07:15:43;;;;;;;10.30;5.95;;;;;;;13.27;67.00;99156.16;5065540;28;20016;-68
2022/10/11 07:18:08;;;;;;;11.40;5.55;;;;;;;13.31;67.26;99157.22;5069462;28;20846;-68
2022/10/11 07:20:34;;;;;;;9.20;5.70;;;;;;;13.31;67.24;99157.22;5069930;28;20032;-68
2022/10/11 07:23:00;;;;;;;9.30;5.47;;;;;;;13.30;67.44;99160.28;5064789;28;20398;-68
2022/10/11 07:25:25;;;;;;;9.65;6.50;;;;;;;13.28;67.45;99162.50;5076187;28;20040;-68
2022/10/11 07:27:50;;;;;;;10.85;6.47;;;;;;;13.32;68.17;99169.88;5074269;28;20040;-68
2022/10/11 07:30:16;;;;;;;12.57;6.60;;;;;;;13.32;68.44;99166.31;5068549;28;20541;-69
2022/10/11 07:32:41;;;;;;;12.05;6.70;;;;;;;13.31;68.56;99170.19;5071840;28;20056;-67
2022/10/11 07:35:07;;;;;;;14.68;7.28;;;;;;;13.31;68.41;99168.25;5080863;28;20028;-68
2022/10/11 07:37:32;;;;;;;9.65;6.45;;;;;;;13.32;68.30;99177.34;5079880;28;20020;-68
2022/10/11 07:39:58;;;;;;;10.23;6.53;;;;;;;13.33;68.55;99182.53;5073389;28;20033;-69
2022/10/11 07:42:23;;;;;;;10.68;7.28;;;;;;;13.34;68.68;99181.41;5073418;28;20028;-69
2022/10/11 07:44:49;;;;;;;10.15;6.93;;;;;;;13.34;69.06;99192.44;5069576;28;20032;-68
2022/10/11 07:47:14;;;;;;;12.15;7.38;;;;;;;13.32;68.35;99199.38;5064427;28;20390;-70
2022/10/11 07:49:39;;;;;;;13.90;9.13;;;;;;;13.28;69.08;99201.09;5065708;28;20025;-69
2022/10/11 07:52:05;;;;;;;14.18;7.38;;;;;;;13.27;69.00;99204.94;5071518;28;20493;-69
2022/10/11 07:54:31;;;;;;;14.07;8.52;;;;;;;13.26;69.38;99209.63;5070653;28;20381;-70
2022/10/11 07:56:57;;;;;;;13.90;7.53;;;;;;;13.23;69.55;99205.53;5055310;28;20445;-69
2022/10/11 07:59:22;;;;;;;13.63;7.95;;;;;;;13.21;69.50;99216.03;5063049;28;20112;-69
2022/10/11 08:01:47;;;;;;;12.82;7.68;;;;;;;13.18;69.38;99213.06;5057628;28;20437;-70
2022/10/11 08:04:13;;;;;;;12.18;7.20;;;;;;;13.15;69.50;99208.13;5071824;28;20028;-69
2022/10/11 08:06:38;;;;;;;11.75;7.38;;;;;;;13.09;69.95;99210.94;5073782;28;20043;-70
2022/10/11 08:09:05;;;;;;;9.18;6.80;;;;;;;13.05;69.96;99212.66;5066362;28;20067;-69
2022/10/11 08:11:34;;;;;;;11.23;7.10;;;;;;;13.01;69.57;99221.81;5061708;28;20389;-68
2022/10/11 08:14:00;;;;;;;11.65;7.75;;;;;;;13.00;70.13;99218.22;5053893;28;20071;-69
2022/10/11 08:16:25;;;;;;;11.88;6.93;;;;;;;12.97;70.34;99229.81;5055187;28;20017;-70
2022/10/11 08:18:53;;;;;;;11.30;7.40;;;;;;;12.93;70.14;99226.84;5067826;28;20481;-69
2022/10/11 08:21:19;;;;;;;9.32;6.80;;;;;;;12.94;70.31;99225.72;5059488;28;20442;-69
2022/10/11 08:23:44;;;;;;;12.48;7.63;;;;;;;12.94;69.67;99233.16;5072351;28;20021;-69
2022/10/11 08:26:10;;;;;;;13.88;7.07;;;;;;;12.95;69.94;99229.28;5071965;28;20041;-70
2022/10/11 08:28:37;;;;;;;12.90;8.23;;;;;;;12.95;70.15;99234.78;5041733;28;20413;-69
2022/10/11 08:31:03;;;;;;;16.30;9.45;;;;;;;12.90;70.16;99241.19;5050859;28;20674;-68
2022/10/11 08:33:28;;;;;;;12.20;8.35;;;;;;;12.88;69.65;99237.91;5051950;28;20036;-69
2022/10/11 08:35:55;;;;;;;16.27;9.23;;;;;;;12.90;70.04;99238.44;5053064;28;20032;-69
2022/10/11 08:38:22;;;;;;;16.08;9.48;;;;;;;12.93;70.10;99245.28;5052060;28;20530;-69
2022/10/11 08:40:50;;;;;;;14.93;9.80;;;;;;;12.93;69.51;99253.53;5053131;28;20037;-69
2022/10/11 08:43:31;;;;;;;13.70;12.18;;;;;;;12.92;69.74;99249.97;5058999;28;20082;-69
2022/10/11 08:46:00;;;;;;;11.95;8.57;;;;;;;12.91;69.64;99251.09;5061977;28;20351;-70
2022/10/11 08:48:36;;;;;;;13.75;9.73;;;;;;;12.94;69.82;99255.19;5047390;28;20067;-70
2022/10/11 08:51:07;;;;;;;15.13;9.70;;;;;;;12.97;69.69;99259.31;5064367;28;20056;-69
2022/10/11 08:53:32;;;;;;;14.20;8.55;;;;;;;12.95;70.01;99254.91;5055007;28;20081;-69
2022/10/11 08:55:58;;;;;;;14.52;8.82;;;;;;;12.91;70.16;99248.34;5072730;28;20032;-68
2022/10/11 08:58:37;;;;;;;12.02;8.32;;;;;;;12.89;69.79;99253.31;5072403;28;20104;-68
2022/10/11 09:01:05;;;;;;;12.05;8.52;;;;;;;12.91;70.49;99253.00;5072784;28;20025;-69
2022/10/11 09:03:43;;;;;;;12.80;9.05;;;;;;;12.88;69.62;99248.91;5072712;28;20028;-69
2022/10/11 09:06:20;;;;;;;14.25;9.18;;;;;;;12.90;69.91;99249.44;5072422;28;20020;-68
2022/10/11 09:09:20;;;;;;;15.38;8.60;;;;;;;12.91;69.83;99256.59;5072475;28;20025;-68
2022/10/11 09:11:56;;;;;;;14.23;10.02;;;;;;;12.97;69.73;99260.09;5055160;28;20041;-68
2022/10/11 09:14:45;;;;;;;14.65;9.70;;;;;;;12.99;69.90;99262.59;5072272;28;20123;-68
2022/10/11 09:17:11;;;;;;;;;;;;;;;13.00;69.98;99267.78;5072761;28;20099;-69
2022/10/11 09:19:56;;;;;;;12.85;8.77;;;;;;;13.01;69.90;99268.63;5054290;28;20065;-69
2022/10/11 09:22:41;;;;;;;13.60;9.73;;;;;;;13.06;70.03;99265.78;5071978;28;20028;-69
2022/10/11 09:25:29;;;;;;;12.93;8.32;;;;;;;13.17;69.98;99272.00;5072082;28;20119;-68
2022/10/11 09:28:03;;;;;;;12.60;7.95;;;;;;;13.24;70.16;99269.72;5054081;28;20017;-69
2022/10/11 09:30:29;;;;;;;13.02;7.95;;;;;;;13.31;69.76;99270.16;5072018;28;20051;-69
2022/10/11 09:33:35;;;;;;;10.38;8.02;;;;;;;13.37;69.66;99273.69;5070848;28;20031;-69
2022/10/11 09:36:10;;;;;;;13.65;11.18;;;;;;;13.34;69.48;99271.53;5070930;28;20048;-69
2022/10/11 09:38:49;;;;;;;15.73;10.77;;;;;;;13.31;69.38;99272.91;5072047;28;20032;-69
2022/10/11 09:41:33;;;;;;;18.35;11.05;;;;;;;13.28;69.34;99276.25;5071849;28;20029;-69
2022/10/11 09:43:59;;;;;;;13.60;9.32;;;;;;;13.27;69.46;99284.84;5071882;28;20032;-69
2022/10/11 09:46:35;;;;;;;16.42;10.32;;;;;;;13.21;69.23;99282.13;5071735;28;20390;-69
2022/10/11 09:49:08;;;;;;;23.73;12.90;;;;;;;13.21;69.38;99279.38;5071418;28;20025;-69
2022/10/11 09:51:34;;;;;;;19.25;12.60;;;;;;;13.23;69.36;99287.38;5071989;28;20024;-69
2022/10/11 09:54:03;;;;;;;15.93;9.55;;;;;;;13.20;69.36;99283.25;5071668;28;20040;-69
2022/10/11 09:56:31;;;;;;;15.02;9.55;;;;;;;13.20;69.33;99285.19;5071637;28;20032;-69
2022/10/11 09:59:31;;;;;;;13.60;10.10;;;;;;;13.19;69.42;99289.88;5071743;28;20028;-69
2022/10/11 10:02:16;;;;;;;12.27;9.05;;;;;;;13.22;69.32;99288.47;5071752;28;20150;-70
2022/10/11 10:05:00;;;;;;;12.80;9.63;;;;;;;13.21;69.25;99297.84;5071742;28;20520;-69
2022/10/11 10:07:31;;;;;;;14.35;8.50;;;;;;;13.21;69.39;99298.66;5071529;28;20032;-69
2022/10/11 10:09:57;;;;;;;12.10;8.77;;;;;;;13.23;69.49;99299.19;5071475;28;20430;-70
2022/10/11 10:12:29;;;;;;;10.95;8.30;;;;;;;13.22;69.25;99300.31;5071534;28;20047;-69
2022/10/11 10:15:16;;;;;;;13.80;8.15;;;;;;;13.29;69.22;99304.66;5071029;28;20044;-68
2022/10/11 10:17:48;;;;;;;10.57;7.65;;;;;;;13.35;69.34;99298.78;5053204;28;20032;-68
2022/10/11 10:20:32;;;;;;;9.05;7.30;;;;;;;13.39;69.19;99305.34;5070988;28;20036;-68
2022/10/11 10:23:19;;;;;;;8.95;7.70;;;;;;;13.41;68.74;99299.59;5071291;28;20031;-69
2022/10/11 10:25:49;;;;;;;12.50;8.75;;;;;;;13.50;68.96;99292.28;5070980;28;20114;-69
2022/10/11 10:28:24;;;;;;;11.75;8.02;;;;;;;13.61;69.26;99290.22;5070713;28;20065;-69
2022/10/11 10:30:54;;;;;;;15.82;12.10;;;;;;;13.70;69.07;99293.13;5070739;28;20032;-69
2022/10/11 10:33:24;;;;;;;14.48;10.40;;;;;;;13.73;69.02;99295.31;5070873;28;20437;-69
2022/10/11 10:35:55;;;;;;;17.13;14.40;;;;;;;13.79;68.72;99298.78;5070728;28;20429;-69
2022/10/11 10:38:48;;;;;;;9.02;7.03;;;;;;;13.85;68.67;99300.38;5070928;28;20067;-69
2022/10/11 10:41:17;;;;;;;14.50;8.02;;;;;;;13.89;68.71;99300.59;5052992;28;20048;-69
2022/10/11 10:43:51;;;;;;;9.97;6.87;;;;;;;13.91;68.44;99304.69;5070217;28;20068;-69
2022/10/11 10:46:44;;;;;;;16.65;10.52;;;;;;;13.93;68.31;99305.22;5070882;28;20028;-69
2022/10/11 10:49:37;;;;;;;15.40;7.75;;;;;;;13.98;68.33;99313.44;5071116;28;20074;-69
2022/10/11 10:52:24;;;;;;;11.65;7.07;;;;;;;14.06;68.34;99306.41;5069935;28;20040;-69
2022/10/11 10:54:49;;;;;;;11.60;6.45;;;;;;;14.13;68.18;99306.84;5070110;28;20071;-68
2022/10/11 10:57:26;;;;;;;13.20;7.35;;;;;;;14.19;68.15;99307.59;5070114;28;20048;-68
2022/10/11 11:00:14;;;;;;;8.40;5.57;;;;;;;14.25;68.04;99298.13;5070838;28;20063;-68
2022/10/11 11:02:42;;;;;;;9.32;5.63;;;;;;;14.37;68.13;99300.41;5073511;28;20032;-68
2022/10/11 11:05:28;;;;;;;8.40;5.43;;;;;;;14.48;68.01;99300.25;5051228;28;20452;-69
2022/10/11 11:08:03;;;;;;;10.10;4.85;;;;;;;14.52;67.20;99301.28;5015525;28;20103;-69
2022/10/11 11:10:34;;;;;;;8.45;5.60;;;;;;;14.55;67.26;99307.00;5054516;28;20040;-69
2022/10/11 11:13:24;;;;;;;7.90;5.72;;;;;;;14.54;67.11;99299.84;5053965;28;20486;-68
2022/10/11 11:16:34;;;;;;;6.22;5.32;;;;;;;14.58;67.02;99298.13;5054523;28;20036;-69
2022/10/11 11:19:41;;;;;;;7.60;5.32;;;;;;;14.63;66.94;99305.53;5050134;28;20064;-68
2022/10/11 11:22:28;;;;;;;9.57;5.32;;;;;;;14.63;66.90;99294.47;5022394;28;20517;-68
2022/10/11 11:25:31;;;;;;;7.50;4.82;;;;;;;14.65;66.94;99296.91;5054085;28;20029;-68
2022/10/11 11:28:08;;;;;;;9.00;4.53;;;;;;;14.65;66.72;99297.75;5054274;28;20045;-67
2022/10/11 11:30:48;;;;;;;6.00;3.88;;;;;;;14.68;66.41;99296.31;5054087;28;20040;-68
2022/10/11 11:33:41;;;;;;;8.35;3.78;;;;;;;14.66;65.81;99290.28;5054444;28;20029;-70
2022/10/11 11:36:22;;;;;;;7.93;3.70;;;;;;;14.67;64.64;99294.69;5053854;28;20032;-69
2022/10/11 11:38:58;;;;;;;5.97;2.95;;;;;;;14.70;64.68;99289.38;5053788;28;20433;-69
2022/10/11 11:41:33;;;;;;;4.72;2.72;;;;;;;14.81;64.47;99289.22;5035680;28;20021;-69
2022/10/11 11:44:04;;;;;;;5.40;2.80;;;;;;;14.87;64.32;99294.34;5053382;28;20048;-68
2022/10/11 11:46:34;;;;;;;5.40;2.72;;;;;;;15.01;64.47;99296.28;5052661;28;20036;-69
2022/10/11 11:49:10;;;;;;;5.38;3.05;;;;;;;15.06;64.45;99298.16;5053679;28;20021;-69